createdAt,value
2022-10-01T00:00:49.316Z,16.73
2022-10-01T00:03:53.080Z,16.40
2022-10-01T00:06:59.158Z,15.73
2022-10-01T00:10:02.029Z,15.93
2022-10-01T00:13:06.241Z,15.40
2022-10-01T00:16:11.053Z,15.83
2022-10-01T00:19:14.963Z,15.83
2022-10-01T00:22:18.991Z,13.60
2022-10-01T00:25:22.484Z,14.63
2022-10-01T00:28:29.863Z,14.93
2022-10-01T00:31:34.088Z,14.20
2022-10-01T00:34:37.309Z,13.60
2022-10-01T00:37:40.126Z,12.40
2022-10-01T00:40:42.971Z,14.37
2022-10-01T00:43:50.537Z,13.17
2022-10-01T00:46:56.082Z,13.50
2022-10-01T00:50:03.953Z,16.33
2022-10-01T00:53:12.017Z,13.70
2022-10-01T00:56:14.933Z,15.23
2022-10-01T00:59:19.595Z,12.83
2022-10-01T01:02:22.620Z,13.83
2022-10-01T01:05:25.755Z,14.80
2022-10-01T01:08:29.368Z,14.70
2022-10-01T01:11:41.575Z,13.83
2022-10-01T01:14:54.396Z,15.10
2022-10-01T01:18:06.496Z,12.93
2022-10-01T01:21:19.694Z,14.13
2022-10-01T01:24:41.744Z,14.03
2022-10-01T01:27:47.891Z,15.33
2022-10-01T01:30:57.984Z,15.30
2022-10-01T01:34:04.385Z,17.20
2022-10-01T01:37:11.952Z,15.23
2022-10-01T01:40:17.355Z,14.73
2022-10-01T01:43:25.209Z,13.80
2022-10-01T01:46:33.807Z,12.93
2022-10-01T01:49:36.871Z,12.83
2022-10-01T01:52:39.689Z,12.77
2022-10-01T01:55:44.299Z,13.57
2022-10-01T01:58:47.890Z,11.87
2022-10-01T02:01:52.224Z,12.93
2022-10-01T02:04:59.350Z,12.90
2022-10-01T02:08:21.113Z,14.87
2022-10-01T02:11:29.379Z,16.63
2022-10-01T02:14:43.017Z,17.40
2022-10-01T02:17:55.148Z,17.70
2022-10-01T02:21:09.165Z,17.23
2022-10-01T02:24:21.355Z,16.10
2022-10-01T02:27:30.305Z,16.93
2022-10-01T02:30:35.556Z,17.10
2022-10-01T02:33:42.229Z,17.37
2022-10-01T02:36:46.310Z,16.77
2022-10-01T02:39:51.105Z,16.57
2022-10-01T02:42:58.165Z,16.60
2022-10-01T02:46:08.481Z,16.77
2022-10-01T02:49:15.048Z,16.27
2022-10-01T02:52:23.754Z,16.13
2022-10-01T02:55:30.134Z,15.70
2022-10-01T02:58:33.065Z,13.40
2022-10-01T03:01:36.852Z,15.87
2022-10-01T03:04:41.276Z,15.67
2022-10-01T03:07:44.611Z,15.60
2022-10-01T03:10:47.487Z,16.13
2022-10-01T03:13:50.326Z,16.17
2022-10-01T03:16:53.749Z,15.10
2022-10-01T03:19:57.904Z,15.57
2022-10-01T03:23:00.778Z,15.80
2022-10-01T03:26:03.658Z,14.90
2022-10-01T03:29:06.650Z,15.37
2022-10-01T03:32:09.507Z,14.67
2022-10-01T03:35:13.740Z,14.33
2022-10-01T03:38:16.589Z,15.17
2022-10-01T03:41:19.389Z,13.63
2022-10-01T03:44:22.383Z,14.60
2022-10-01T03:47:26.093Z,14.30
2022-10-01T03:50:30.304Z,14.07
2022-10-01T03:53:33.242Z,15.17
2022-10-01T03:56:36.726Z,13.33
2022-10-01T03:59:39.553Z,13.37
2022-10-01T04:02:42.456Z,14.10
2022-10-01T04:05:47.209Z,14.43
2022-10-01T04:08:50.230Z,14.40
2022-10-01T04:11:53.126Z,13.43
2022-10-01T04:14:56.011Z,12.67
2022-10-01T04:17:58.779Z,12.97
2022-10-01T04:21:03.333Z,12.47
2022-10-01T04:24:06.276Z,13.20
2022-10-01T04:27:09.057Z,13.07
2022-10-01T04:30:12.250Z,13.40
2022-10-01T04:33:17.152Z,13.07
2022-10-01T04:36:21.534Z,11.80
2022-10-01T04:39:24.959Z,11.80
2022-10-01T04:42:27.831Z,12.40
2022-10-01T04:45:31.170Z,12.27
2022-10-01T04:48:34.084Z,11.90
2022-10-01T04:51:38.260Z,11.43
2022-10-01T04:54:41.125Z,12.77
2022-10-01T04:57:44.888Z,12.43
2022-10-01T05:00:49.087Z,11.27
2022-10-01T05:03:51.981Z,11.97
2022-10-01T05:06:56.260Z,11.83
2022-10-01T05:10:00.108Z,11.80
2022-10-01T05:13:02.995Z,12.57
2022-10-01T05:16:06.134Z,12.03
2022-10-01T05:19:09.090Z,12.20
2022-10-01T05:22:13.352Z,11.47
2022-10-01T05:25:16.964Z,11.57
2022-10-01T05:28:22.344Z,11.50
2022-10-01T05:31:25.883Z,12.03
2022-10-01T05:34:28.803Z,10.93
2022-10-01T05:37:33.125Z,11.53
2022-10-01T05:40:35.949Z,11.73
2022-10-01T05:43:38.777Z,12.17
2022-10-01T05:46:42.280Z,11.17
2022-10-01T05:49:45.802Z,10.97
2022-10-01T05:52:54.723Z,13.07
2022-10-01T05:56:00.168Z,10.80
2022-10-01T05:59:03.071Z,11.40
2022-10-01T06:02:06.211Z,10.47
2022-10-01T06:05:09.317Z,10.83
2022-10-01T06:08:14.705Z,10.47
2022-10-01T06:11:17.790Z,11.47
2022-10-01T06:14:20.656Z,10.20
2022-10-01T06:17:23.465Z,10.07
2022-10-01T06:20:26.376Z,10.10
2022-10-01T06:23:30.588Z,10.27
2022-10-01T06:26:33.449Z,9.93
2022-10-01T06:29:36.246Z,9.90
2022-10-01T06:32:39.522Z,10.03
2022-10-01T06:35:43.969Z,10.33
2022-10-01T06:38:50.527Z,10.70
2022-10-01T06:41:53.371Z,9.97
2022-10-01T06:44:56.242Z,9.93
2022-10-01T06:48:02.558Z,10.33
2022-10-01T06:51:06.052Z,10.17
2022-10-01T06:54:10.532Z,9.77
2022-10-01T06:57:13.346Z,10.53
2022-10-01T07:00:16.323Z,9.80
2022-10-01T07:03:21.606Z,10.17
2022-10-01T07:06:25.333Z,10.73
2022-10-01T07:09:29.589Z,10.50
2022-10-01T07:12:32.429Z,10.67
2022-10-01T07:15:35.393Z,9.80
2022-10-01T07:18:38.405Z,9.67
2022-10-01T07:21:41.253Z,10.37
2022-10-01T07:24:45.736Z,9.83
2022-10-01T07:27:48.609Z,10.93
2022-10-01T07:30:59.752Z,10.27
2022-10-01T07:34:02.584Z,9.67
2022-10-01T07:37:06.574Z,10.40
2022-10-01T07:40:11.214Z,10.30
2022-10-01T07:43:14.718Z,10.47
2022-10-01T07:46:17.664Z,10.77
2022-10-01T07:49:20.581Z,11.30
2022-10-01T07:52:23.430Z,9.70
2022-10-01T07:55:30.709Z,9.77
2022-10-01T07:58:34.282Z,9.60
2022-10-01T08:01:37.875Z,9.07
2022-10-01T08:04:58.439Z,9.37
2022-10-01T08:08:02.167Z,9.37
2022-10-01T08:11:07.647Z,9.43
2022-10-01T08:14:10.429Z,9.37
2022-10-01T08:17:13.255Z,10.77
2022-10-01T08:20:16.858Z,9.63
2022-10-01T08:23:19.706Z,10.70
2022-10-01T08:26:23.896Z,9.37
2022-10-01T08:29:26.716Z,9.30
2022-10-01T08:32:31.115Z,9.37
2022-10-01T08:35:33.971Z,9.80
2022-10-01T08:38:37.605Z,8.87
2022-10-01T08:41:52.221Z,9.53
2022-10-01T08:44:55.158Z,9.40
2022-10-01T08:48:04.713Z,9.73
2022-10-01T08:51:12.257Z,11.53
2022-10-01T08:54:28.463Z,10.13
2022-10-01T08:57:39.222Z,9.00
2022-10-01T09:00:46.002Z,9.67
2022-10-01T09:03:49.477Z,8.20
2022-10-01T09:07:00.840Z,8.73
2022-10-01T09:10:17.652Z,8.40
2022-10-01T09:13:50.300Z,8.03
2022-10-01T09:17:04.080Z,8.77
2022-10-01T09:20:19.209Z,7.33
2022-10-01T09:23:28.337Z,7.40
2022-10-01T09:26:31.753Z,6.50
2022-10-01T09:29:42.860Z,7.60
2022-10-01T09:32:51.701Z,6.27
2022-10-01T09:36:01.483Z,6.40
2022-10-01T09:39:15.831Z,6.00
2022-10-01T09:42:18.749Z,6.40
2022-10-01T09:45:24.631Z,5.83
2022-10-01T09:48:32.716Z,4.70
2022-10-01T09:51:41.776Z,5.00
2022-10-01T09:54:48.527Z,4.80
2022-10-01T09:57:58.792Z,5.23
2022-10-01T10:01:04.066Z,4.50
2022-10-01T10:04:06.856Z,5.40
2022-10-01T10:07:16.569Z,4.53
2022-10-01T10:10:25.590Z,4.33
2022-10-01T10:13:35.199Z,4.70
2022-10-01T10:16:47.268Z,4.90
2022-10-01T10:19:52.270Z,5.53
2022-10-01T10:22:55.235Z,5.90
2022-10-01T10:26:00.824Z,5.50
2022-10-01T10:29:05.535Z,6.27
2022-10-01T10:32:20.276Z,5.83
2022-10-01T10:35:26.556Z,5.90
2022-10-01T10:38:33.512Z,6.73
2022-10-01T10:41:36.865Z,6.00
2022-10-01T10:44:43.448Z,6.10
2022-10-01T10:47:50.099Z,6.73
2022-10-01T10:51:00.333Z,6.87
2022-10-01T10:54:03.733Z,7.10
2022-10-01T10:57:21.207Z,8.03
2022-10-01T11:00:25.892Z,7.87
2022-10-01T11:03:34.161Z,7.20
2022-10-01T11:06:38.278Z,8.43
2022-10-01T11:10:04.311Z,8.73
2022-10-01T11:13:23.687Z,7.50
2022-10-01T11:16:47.030Z,8.30
2022-10-01T11:20:04.775Z,8.80
2022-10-01T11:23:27.582Z,8.60
2022-10-01T11:26:38.216Z,9.10
2022-10-01T11:29:51.272Z,8.40
2022-10-01T11:33:05.924Z,8.17
2022-10-01T11:36:20.778Z,7.50
2022-10-01T11:39:25.716Z,7.60
2022-10-01T11:42:35.579Z,7.30
2022-10-01T11:45:44.357Z,7.20
2022-10-01T11:48:52.117Z,6.60
2022-10-01T11:52:05.509Z,7.00
2022-10-01T11:55:35.465Z,7.57
2022-10-01T11:58:54.893Z,6.67
2022-10-01T12:02:08.154Z,6.63
2022-10-01T12:05:17.136Z,6.73
2022-10-01T12:08:25.318Z,7.03
2022-10-01T12:11:36.144Z,6.10
2022-10-01T12:14:45.999Z,6.30
2022-10-01T12:17:53.440Z,5.33
2022-10-01T12:21:00.731Z,6.10
2022-10-01T12:24:07.817Z,5.97
2022-10-01T12:27:29.636Z,6.07
2022-10-01T12:30:41.088Z,5.40
2022-10-01T12:34:02.063Z,5.60
2022-10-01T12:37:17.342Z,5.13
2022-10-01T12:40:30.932Z,5.10
2022-10-01T12:44:02.791Z,5.13
2022-10-01T12:47:17.387Z,5.37
2022-10-01T12:50:34.137Z,5.30
2022-10-01T12:53:45.234Z,5.60
2022-10-01T12:56:59.829Z,5.77
2022-10-01T13:00:10.547Z,6.07
2022-10-01T13:04:07.437Z,6.17
2022-10-01T13:07:42.931Z,5.97
2022-10-01T13:10:57.368Z,5.87
2022-10-01T13:14:03.479Z,5.60
2022-10-01T13:17:13.914Z,5.63
2022-10-01T13:20:24.711Z,6.30
2022-10-01T13:23:34.216Z,6.30
2022-10-01T13:26:42.663Z,6.10
2022-10-01T13:29:56.143Z,5.70
2022-10-01T13:33:01.179Z,6.17
2022-10-01T13:36:05.826Z,6.37
2022-10-01T13:39:21.620Z,6.43
2022-10-01T13:42:27.903Z,5.90
2022-10-01T13:45:43.806Z,6.00
2022-10-01T13:48:49.498Z,5.67
2022-10-01T13:51:53.112Z,5.40
2022-10-01T13:54:57.869Z,4.87
2022-10-01T13:58:05.505Z,4.93
2022-10-01T14:01:39.296Z,5.03
2022-10-01T14:04:46.681Z,5.07
2022-10-01T14:07:54.485Z,5.40
2022-10-01T14:11:20.085Z,5.03
2022-10-01T14:14:50.394Z,4.63
2022-10-01T14:17:55.934Z,5.00
2022-10-01T14:21:06.844Z,4.87
2022-10-01T14:24:22.253Z,4.70
2022-10-01T14:27:33.560Z,4.50
2022-10-01T14:30:46.334Z,4.50
2022-10-01T14:34:24.621Z,4.80
2022-10-01T14:37:28.713Z,4.50
2022-10-01T14:40:39.314Z,4.43
2022-10-01T14:43:42.144Z,4.57
2022-10-01T14:46:45.760Z,5.50
2022-10-01T14:49:51.348Z,4.27
2022-10-01T14:52:55.031Z,4.43
2022-10-01T14:56:00.853Z,4.10
2022-10-01T14:59:07.172Z,6.77
2022-10-01T15:02:19.907Z,5.00
2022-10-01T15:05:27.653Z,5.70
2022-10-01T15:08:41.226Z,5.10
2022-10-01T15:11:45.560Z,4.10
2022-10-01T15:14:48.742Z,3.90
2022-10-01T15:17:52.880Z,4.13
2022-10-01T15:21:00.821Z,4.10
2022-10-01T15:24:05.419Z,4.27
2022-10-01T15:27:09.988Z,4.20
2022-10-01T15:30:18.156Z,3.73
2022-10-01T15:33:28.478Z,3.90
2022-10-01T15:36:33.424Z,4.97
2022-10-01T15:39:39.153Z,4.17
2022-10-01T15:43:07.964Z,4.20
2022-10-01T15:46:20.649Z,5.10
2022-10-01T15:49:27.419Z,4.17
2022-10-01T15:52:52.254Z,4.10
2022-10-01T15:55:57.453Z,4.23
2022-10-01T15:59:14.021Z,4.00
2022-10-01T16:02:22.017Z,3.77
2022-10-01T16:05:27.940Z,3.50
2022-10-01T16:08:35.312Z,3.60
2022-10-01T16:11:52.824Z,4.33
2022-10-01T16:15:00.213Z,4.20
2022-10-01T16:18:03.383Z,4.17
2022-10-01T16:21:09.801Z,3.90
2022-10-01T16:24:28.542Z,4.50
2022-10-01T16:27:36.027Z,4.00
2022-10-01T16:30:38.890Z,3.90
2022-10-01T16:33:41.726Z,3.67
2022-10-01T16:36:44.996Z,4.30
2022-10-01T16:39:49.435Z,3.87
2022-10-01T16:42:53.226Z,3.50
2022-10-01T16:45:57.577Z,4.03
2022-10-01T16:49:00.798Z,3.90
2022-10-01T16:52:03.659Z,4.00
2022-10-01T16:55:16.149Z,4.23
2022-10-01T16:58:20.079Z,3.87
2022-10-01T17:01:22.923Z,4.10
2022-10-01T17:04:29.237Z,4.10
2022-10-01T17:07:34.356Z,4.40
2022-10-01T17:10:41.337Z,4.13
2022-10-01T17:13:44.162Z,3.90
2022-10-01T17:16:47.594Z,4.83
2022-10-01T17:19:50.457Z,4.13
2022-10-01T17:22:53.548Z,4.77
2022-10-01T17:25:57.765Z,5.47
2022-10-01T17:29:01.223Z,4.80
2022-10-01T17:32:04.110Z,4.73
2022-10-01T17:35:08.254Z,4.63
2022-10-01T17:38:12.032Z,4.47
2022-10-01T17:41:16.240Z,5.00
2022-10-01T17:44:19.198Z,4.63
2022-10-01T17:47:22.124Z,5.77
2022-10-01T17:50:26.053Z,6.17
2022-10-01T17:53:34.190Z,5.27
2022-10-01T17:56:44.061Z,4.73
2022-10-01T17:59:46.878Z,4.50
2022-10-01T18:02:49.764Z,5.23
2022-10-01T18:05:54.309Z,4.67
2022-10-01T18:08:57.178Z,4.70
2022-10-01T18:12:01.514Z,4.57
2022-10-01T18:15:05.490Z,4.47
2022-10-01T18:19:31.151Z,4.90
2022-10-01T18:21:32.395Z,4.23
2022-10-01T18:24:36.327Z,4.50
2022-10-01T18:27:40.627Z,4.33
2022-10-01T18:30:43.450Z,4.10
2022-10-01T18:33:49.157Z,4.27
2022-10-01T18:36:56.649Z,4.43
2022-10-01T18:40:06.683Z,4.23
2022-10-01T18:43:16.852Z,4.93
2022-10-01T18:46:32.869Z,4.03
2022-10-01T18:49:58.845Z,4.50
2022-10-01T18:53:18.804Z,4.87
2022-10-01T18:56:31.442Z,4.27
2022-10-01T18:59:58.924Z,4.60
2022-10-01T19:03:21.592Z,5.00
2022-10-01T19:06:48.515Z,4.67
2022-10-01T19:09:58.730Z,5.47
2022-10-01T19:13:13.814Z,4.70
2022-10-01T19:16:33.455Z,5.70
2022-10-01T19:19:44.366Z,5.83
2022-10-01T19:23:06.399Z,5.70
2022-10-01T19:26:14.238Z,5.73
2022-10-01T19:29:29.709Z,5.80
2022-10-01T19:32:41.974Z,5.67
2022-10-01T19:35:51.038Z,5.93
2022-10-01T19:38:56.504Z,5.63
2022-10-01T19:42:04.056Z,5.07
2022-10-01T19:45:17.504Z,5.33
2022-10-01T19:48:27.128Z,4.97
2022-10-01T19:51:34.088Z,5.37
2022-10-01T19:54:42.572Z,5.17
2022-10-01T19:57:46.398Z,5.03
2022-10-01T20:00:55.731Z,4.77
2022-10-01T20:04:03.934Z,4.97
2022-10-01T20:07:11.432Z,4.67
2022-10-01T20:10:21.277Z,4.97
2022-10-01T20:13:39.823Z,4.93
2022-10-01T20:16:47.208Z,4.23
2022-10-01T20:19:59.976Z,4.80
2022-10-01T20:23:13.358Z,4.20
2022-10-01T20:26:24.286Z,3.93
2022-10-01T20:29:43.349Z,4.60
2022-10-01T20:32:54.130Z,4.00
2022-10-01T20:36:05.189Z,4.30
2022-10-01T20:39:18.379Z,4.73
2022-10-01T20:42:25.066Z,4.43
2022-10-01T20:45:30.149Z,4.70
2022-10-01T20:48:37.255Z,4.00
2022-10-01T20:51:48.511Z,4.27
2022-10-01T20:54:53.762Z,3.87
2022-10-01T20:58:01.132Z,3.80
2022-10-01T21:01:09.977Z,3.90
2022-10-01T21:04:19.600Z,5.13
2022-10-01T21:07:31.261Z,3.90
2022-10-01T21:10:42.451Z,3.53
2022-10-01T21:13:52.999Z,3.50
2022-10-01T21:17:20.897Z,6.53
2022-10-01T21:20:52.550Z,4.33
2022-10-01T21:24:15.503Z,3.37
2022-10-01T21:27:38.046Z,3.67
2022-10-01T21:30:58.694Z,3.70
2022-10-01T21:34:05.538Z,4.90
2022-10-01T21:37:15.710Z,6.00
2022-10-01T21:40:28.051Z,5.10
2022-10-01T21:43:54.368Z,4.10
2022-10-01T21:47:04.774Z,4.23
2022-10-01T21:50:20.832Z,5.07
2022-10-01T21:53:48.940Z,6.40
2022-10-01T21:57:16.589Z,5.93
2022-10-01T22:00:24.788Z,4.73
2022-10-01T22:03:34.885Z,5.83
2022-10-01T22:06:45.608Z,4.13
2022-10-01T22:10:04.062Z,4.50
2022-10-01T22:13:23.218Z,4.50
2022-10-01T22:16:31.499Z,6.43
2022-10-01T22:19:38.204Z,4.37
2022-10-01T22:22:41.205Z,7.80
2022-10-01T22:25:49.561Z,4.90
2022-10-01T22:28:56.621Z,4.10
2022-10-01T22:32:04.112Z,5.10
2022-10-01T22:35:16.395Z,4.63
2022-10-01T22:38:24.782Z,4.83
2022-10-01T22:41:33.579Z,4.53
2022-10-01T22:44:38.137Z,9.60
2022-10-01T22:47:57.824Z,4.77
2022-10-01T22:51:17.164Z,5.33
2022-10-01T22:54:38.206Z,5.23
2022-10-01T22:58:09.334Z,4.50
2022-10-01T23:01:24.309Z,6.77
2022-10-01T23:04:42.192Z,4.13
2022-10-01T23:07:54.151Z,4.37
2022-10-01T23:11:07.033Z,5.60
2022-10-01T23:14:17.218Z,5.97
2022-10-01T23:17:26.455Z,3.97
2022-10-01T23:20:32.911Z,4.67
2022-10-01T23:23:35.950Z,5.43
2022-10-01T23:26:48.945Z,4.40
2022-10-01T23:30:03.485Z,6.90
2022-10-01T23:33:22.104Z,4.33
2022-10-01T23:36:35.317Z,7.00
2022-10-01T23:39:47.447Z,7.20
2022-10-01T23:42:56.017Z,6.70
2022-10-01T23:46:03.447Z,7.80
2022-10-01T23:49:12.457Z,5.23
2022-10-01T23:52:22.175Z,5.27
2022-10-01T23:55:51.561Z,6.57
2022-10-01T23:58:58.087Z,4.87
